Time;durP1;ratioP1;P1;durP2;ratioP2;P2;SDS_P1;SDS_P2;PMS_P1;PMS_P2;Temp;Humidity;BMP_temperature;BMP_pressure;BME280_temperature;BME280_humidity;BME280_pressure;Samples;Min_cycle;Max_cycle;Signal;HPM_P1;HPM_P2
2022/04/29 00:00:47;;;;;;;2.88;2.60;;;20.30;56.20;;;;;;5032061;23;20222;-71
2022/04/29 00:03:14;;;;;;;2.58;2.38;;;20.20;56.20;;;;;;4998189;28;20221;-71
2022/04/29 00:05:43;;;;;;;3.10;2.72;;;20.20;56.20;;;;;;5015343;28;20230;-71
2022/04/29 00:08:10;;;;;;;3.10;2.60;;;20.20;56.20;;;;;;5031774;28;20266;-71
2022/04/29 00:10:38;;;;;;;3.40;3.10;;;20.20;56.10;;;;;;5031487;28;20206;-71
2022/04/29 00:13:07;;;;;;;3.70;3.40;;;20.20;56.20;;;;;;4998392;28;20183;-71
2022/04/29 00:15:32;;;;;;;3.20;2.95;;;20.20;56.10;;;;;;5014901;28;20693;-71
2022/04/29 00:17:58;;;;;;;3.35;3.08;;;20.20;56.20;;;;;;4998461;28;20187;-71
2022/04/29 00:20:24;;;;;;;3.42;3.13;;;20.20;56.10;;;;;;5015090;28;20222;-71
2022/04/29 00:22:50;;;;;;;3.22;2.67;;;20.20;56.20;;;;;;5014762;28;20589;-72
2022/04/29 00:25:16;;;;;;;2.80;2.60;;;20.20;56.20;;;;;;5014948;28;20566;-68
2022/04/29 00:27:42;;;;;;;3.05;2.40;;;20.20;56.20;;;;;;5015091;28;20183;-69
2022/04/29 00:30:12;;;;;;;2.88;2.63;;;20.20;56.20;;;;;;5003080;28;20195;-68
2022/04/29 00:32:39;;;;;;;2.60;2.25;;;20.20;56.20;;;;;;5044927;28;20186;-68
2022/04/29 00:35:08;;;;;;;2.10;1.95;;;20.20;56.20;;;;;;5051209;28;20190;-68
2022/04/29 00:37:46;;;;;;;2.58;2.38;;;20.20;56.20;;;;;;5051041;28;20280;-68
2022/04/29 00:40:21;;;;;;;2.55;2.35;;;20.20;56.20;;;;;;5034296;28;20244;-68
2022/04/29 00:42:47;;;;;;;2.67;2.47;;;20.20;56.20;;;;;;5034400;28;20304;-68
2022/04/29 00:45:16;;;;;;;2.55;2.35;;;20.20;56.20;;;;;;5018319;28;20177;-68
2022/04/29 00:47:44;;;;;;;3.03;2.83;;;20.20;56.20;;;;;;5034313;28;20269;-68
2022/04/29 00:50:13;;;;;;;3.67;2.92;;;20.20;56.20;;;;;;5051237;28;20198;-68
2022/04/29 00:52:45;;;;;;;3.08;2.88;;;20.20;56.20;;;;;;5034095;28;20194;-68
2022/04/29 00:55:14;;;;;;;4.47;3.10;;;20.20;56.00;;;;;;5034322;28;20186;-68
2022/04/29 00:58:21;;;;;;;3.00;2.80;;;20.10;55.90;;;;;;5052857;28;20320;-68
2022/04/29 01:00:47;;;;;;;2.20;2.00;;;20.10;55.90;;;;;;5028236;28;20214;-68
2022/04/29 01:03:14;;;;;;;2.38;2.17;;;20.20;56.10;;;;;;5035046;28;20217;-68
2022/04/29 01:05:42;;;;;;;2.30;2.10;;;20.20;56.10;;;;;;5018767;28;20221;-68
2022/04/29 01:08:09;;;;;;;3.55;2.60;;;20.10;56.00;;;;;;5018732;28;20183;-69
2022/04/29 01:10:35;;;;;;;2.58;2.38;;;20.20;56.10;;;;;;5018278;28;20214;-68
2022/04/29 01:13:04;;;;;;;2.55;2.35;;;20.10;56.10;;;;;;5018377;28;20183;-68
2022/04/29 01:15:31;;;;;;;2.55;2.35;;;20.20;56.10;;;;;;5018434;28;20188;-69
2022/04/29 01:18:01;;;;;;;2.50;2.30;;;20.20;56.10;;;;;;5018463;28;20199;-68
2022/04/29 01:20:31;;;;;;;2.80;2.60;;;20.20;56.10;;;;;;5034540;28;20717;-68
2022/04/29 01:22:57;;;;;;;3.20;2.90;;;20.20;56.00;;;;;;5001777;28;20215;-68
2022/04/29 01:25:24;;;;;;;3.00;2.80;;;20.10;55.90;;;;;;5018072;28;20234;-68
2022/04/29 01:27:53;;;;;;;3.20;2.90;;;20.10;55.80;;;;;;5018742;28;20187;-68
2022/04/29 01:30:20;;;;;;;3.15;2.83;;;20.20;55.90;;;;;;5042638;28;20199;-68
2022/04/29 01:32:47;;;;;;;3.58;3.28;;;20.10;55.80;;;;;;5035387;28;20190;-68
2022/04/29 01:35:14;;;;;;;3.10;2.83;;;20.10;55.80;;;;;;5038026;28;20187;-68
2022/04/29 01:37:42;;;;;;;2.40;2.20;;;20.20;55.80;;;;;;5037877;28;20188;-69
2022/04/29 01:40:10;;;;;;;2.60;2.40;;;20.10;55.80;;;;;;5037729;28;20217;-69
2022/04/29 01:42:38;;;;;;;2.47;2.28;;;20.10;55.90;;;;;;5037536;28;20221;-68
2022/04/29 01:45:04;;;;;;;2.60;2.40;;;20.20;56.00;;;;;;5037727;28;20178;-68
2022/04/29 01:47:41;;;;;;;2.17;2.05;;;20.10;55.90;;;;;;5053964;28;20174;-68
2022/04/29 01:50:20;;;;;;;2.25;2.10;;;20.20;55.90;;;;;;5037248;28;20233;-68
2022/04/29 01:52:47;;;;;;;2.13;2.00;;;20.10;55.90;;;;;;5020565;28;20240;-68
2022/04/29 01:55:13;;;;;;;2.50;2.30;;;20.10;55.80;;;;;;5037420;28;20194;-68
2022/04/29 01:57:42;;;;;;;3.13;2.67;;;20.20;56.00;;;;;;5053773;28;20205;-68
2022/04/29 02:00:10;;;;;;;3.08;2.85;;;20.10;55.90;;;;;;5028704;28;20213;-68
2022/04/29 02:02:45;;;;;;;3.42;3.13;;;20.10;55.80;;;;;;5032520;28;20687;-69
2022/04/29 02:05:14;;;;;;;3.38;3.10;;;20.10;55.70;;;;;;4998222;28;20210;-68
2022/04/29 02:07:40;;;;;;;3.05;2.78;;;20.10;55.80;;;;;;4997809;28;20184;-68
2022/04/29 02:10:07;;;;;;;3.60;3.30;;;20.10;55.60;;;;;;4996449;28;20212;-68
2022/04/29 02:12:35;;;;;;;2.85;2.60;;;20.10;55.60;;;;;;5030135;28;20198;-68
2022/04/29 02:15:20;;;;;;;2.58;2.38;;;20.10;55.50;;;;;;5028959;28;20688;-69
2022/04/29 02:17:46;;;;;;;2.22;2.03;;;20.10;55.80;;;;;;5026332;28;20191;-69
2022/04/29 02:20:12;;;;;;;2.47;2.28;;;20.10;55.80;;;;;;5003731;28;20200;-68
2022/04/29 02:22:40;;;;;;;2.58;2.38;;;20.10;55.80;;;;;;4980970;28;20298;-69
2022/04/29 02:25:06;;;;;;;2.28;2.10;;;20.10;55.80;;;;;;5012712;28;20188;-69
2022/04/29 02:27:32;;;;;;;2.40;2.20;;;20.10;55.80;;;;;;5038785;28;20213;-68
2022/04/29 02:29:58;;;;;;;2.50;2.30;;;20.10;55.80;;;;;;5027609;28;20282;-68
2022/04/29 02:32:24;;;;;;;2.22;2.13;;;20.10;55.90;;;;;;5034667;28;20659;-68
2022/04/29 02:34:51;;;;;;;2.10;2.00;;;20.10;55.80;;;;;;4997206;28;20224;-68
2022/04/29 02:37:17;;;;;;;2.55;2.40;;;20.10;55.80;;;;;;4996877;28;20216;-68
2022/04/29 02:39:46;;;;;;;3.17;2.97;;;20.10;55.80;;;;;;5029670;28;20211;-68
2022/04/29 02:42:12;;;;;;;3.00;2.80;;;20.10;55.80;;;;;;4996678;28;20237;-68
2022/04/29 02:44:39;;;;;;;3.10;2.90;;;20.10;55.80;;;;;;4997051;28;20208;-69
2022/04/29 02:47:08;;;;;;;2.83;2.63;;;20.10;55.80;;;;;;5013334;28;20184;-68
2022/04/29 02:49:40;;;;;;;2.83;2.63;;;20.10;55.60;;;;;;4997022;28;20227;-68
2022/04/29 02:52:09;;;;;;;3.08;2.88;;;20.10;55.60;;;;;;4996554;28;20202;-68
2022/04/29 02:54:35;;;;;;;3.00;2.80;;;20.00;55.50;;;;;;4996608;28;20183;-69
2022/04/29 02:57:02;;;;;;;2.92;2.72;;;20.10;55.50;;;;;;4997026;28;20242;-69
2022/04/29 02:59:35;;;;;;;2.58;2.38;;;20.00;55.60;;;;;;5013674;28;20240;-68
2022/04/29 03:02:01;;;;;;;2.53;2.33;;;20.10;55.60;;;;;;5045256;28;20253;-68
2022/04/29 03:04:27;;;;;;;2.42;2.28;;;20.10;55.60;;;;;;5019361;28;20284;-69
2022/04/29 03:06:53;;;;;;;2.50;2.30;;;20.00;55.60;;;;;;5019256;28;20185;-68
2022/04/29 03:09:20;;;;;;;2.03;1.92;;;20.00;55.60;;;;;;5019457;28;20725;-68
2022/04/29 03:11:48;;;;;;;2.10;2.00;;;20.10;55.70;;;;;;5035506;28;20690;-68
2022/04/29 03:14:15;;;;;;;2.13;1.92;;;20.10;55.70;;;;;;5019645;28;20186;-68
2022/04/29 03:16:43;;;;;;;2.20;2.10;;;20.10;55.60;;;;;;5035724;28;20228;-68
2022/04/29 03:19:09;;;;;;;2.28;2.13;;;20.10;55.60;;;;;;5024200;28;20195;-69
2022/04/29 03:21:36;;;;;;;2.35;2.15;;;20.10;55.70;;;;;;5032282;28;20242;-69
2022/04/29 03:24:03;;;;;;;2.40;2.20;;;20.10;55.60;;;;;;5015716;28;20210;-69
2022/04/29 03:26:44;;;;;;;3.22;2.92;;;20.10;55.70;;;;;;5103345;27;20558;-71
2022/04/29 03:29:10;;;;;;;3.50;3.20;;;20.10;55.50;;;;;;5060849;28;20673;-70
2022/04/29 03:31:36;;;;;;;3.50;3.20;;;20.10;55.50;;;;;;5043877;28;20189;-70
2022/04/29 03:34:25;;;;;;;2.83;2.63;;;20.10;55.50;;;;;;5059861;28;20300;-70
2022/04/29 03:36:51;;;;;;;2.42;2.22;;;20.10;55.50;;;;;;5047542;28;20210;-69
2022/04/29 03:39:16;;;;;;;2.88;2.42;;;20.00;55.40;;;;;;5047434;28;20183;-70
2022/04/29 03:41:42;;;;;;;2.88;2.55;;;20.00;55.40;;;;;;5030736;28;20281;-69
2022/04/29 03:44:08;;;;;;;2.20;2.00;;;20.10;55.50;;;;;;5047282;28;20206;-69
2022/04/29 03:46:38;;;;;;;2.30;2.10;;;20.00;55.50;;;;;;5031274;28;20292;-69
2022/04/29 03:49:38;;;;;;;2.42;2.22;;;20.10;55.60;;;;;;5047597;28;20209;-69
2022/04/29 03:52:33;;;;;;;3.40;3.10;;;20.10;55.60;;;;;;5043340;28;20187;-69
2022/04/29 03:54:59;;;;;;;2.75;2.55;;;20.10;55.50;;;;;;5046945;28;20211;-70
2022/04/29 03:57:24;;;;;;;3.10;2.90;;;20.10;55.40;;;;;;5030748;28;20183;-69
2022/04/29 03:59:50;;;;;;;3.83;3.53;;;20.10;55.50;;;;;;5047098;28;20312;-70
2022/04/29 04:02:16;;;;;;;3.38;3.08;;;20.10;55.50;;;;;;5046530;28;20649;-70
2022/04/29 04:04:46;;;;;;;2.80;2.60;;;20.00;55.30;;;;;;5047175;28;20222;-70
2022/04/29 04:07:12;;;;;;;2.40;2.30;;;20.00;55.40;;;;;;5030621;28;20183;-70
2022/04/29 04:09:52;;;;;;;2.22;2.00;;;20.00;55.50;;;;;;5032227;28;20189;-70
2022/04/29 04:12:18;;;;;;;2.75;2.45;;;20.00;55.50;;;;;;5046601;28;20179;-71
2022/04/29 04:15:00;;;;;;;1.90;1.80;;;20.00;55.60;;;;;;5048248;28;20311;-70
2022/04/29 04:17:26;;;;;;;2.67;1.77;;;20.00;55.70;;;;;;5063799;28;20197;-71
2022/04/29 04:19:52;;;;;;;2.28;2.13;;;20.10;55.70;;;;;;5046652;28;20622;-70
2022/04/29 04:22:18;;;;;;;2.55;2.17;;;20.10;55.60;;;;;;5042348;28;20270;-71
2022/04/29 04:24:44;;;;;;;2.30;1.90;;;20.10;55.60;;;;;;5010327;28;20215;-72
2022/04/29 04:27:10;;;;;;;2.72;2.33;;;20.10;55.70;;;;;;5027007;28;20219;-72
2022/04/29 04:29:35;;;;;;;3.25;2.95;;;20.10;55.80;;;;;;5025812;28;20205;-72
2022/04/29 04:32:01;;;;;;;4.10;2.88;;;20.10;55.90;;;;;;5046210;28;20178;-72
2022/04/29 04:37:12;;;;;;;3.33;3.05;;;20.10;56.00;;;;;;5038508;28;20194;-72
2022/04/29 04:39:38;;;;;;;3.53;3.22;;;20.10;56.00;;;;;;5050467;28;20176;-73
2022/04/29 04:42:11;;;;;;;6.10;2.72;;;20.10;56.10;;;;;;5017785;28;20213;-73
2022/04/29 04:44:42;;;;;;;2.45;2.25;;;20.10;56.10;;;;;;5033404;28;20298;-72
2022/04/29 04:47:09;;;;;;;2.70;2.22;;;20.10;55.90;;;;;;5034376;28;20183;-72
2022/04/29 04:50:11;;;;;;;5.88;2.63;;;20.10;56.10;;;;;;5012430;28;20194;-72
2022/04/29 04:52:42;;;;;;;4.68;2.60;;;20.10;56.20;;;;;;5028655;28;20192;-72
2022/04/29 04:55:09;;;;;;;7.18;2.88;;;20.10;56.70;;;;;;5016792;28;20187;-72
2022/04/29 04:57:38;;;;;;;3.40;3.00;;;20.10;56.90;;;;;;5033164;28;20195;-72
2022/04/29 05:00:04;;;;;;;4.82;3.40;;;20.10;57.00;;;;;;5033041;28;20191;-72
2022/04/29 05:02:50;;;;;;;6.40;3.72;;;20.10;57.10;;;;;;5032515;28;20198;-72
2022/04/29 05:05:45;;;;;;;5.65;2.85;;;20.10;57.20;;;;;;5010773;28;20698;-72
2022/04/29 05:08:13;;;;;;;9.73;3.05;;;20.10;57.60;;;;;;5013146;28;20230;-72
2022/04/29 05:10:39;;;;;;;7.07;3.30;;;20.10;57.80;;;;;;5029700;28;20184;-72
2022/04/29 05:13:05;;;;;;;6.72;2.50;;;20.10;57.80;;;;;;5012662;28;20203;-72
2022/04/29 05:15:33;;;;;;;5.78;2.75;;;20.10;57.80;;;;;;5013339;28;20223;-72
2022/04/29 05:18:00;;;;;;;7.57;2.60;;;20.10;57.70;;;;;;5012947;28;20224;-73
2022/04/29 05:20:39;;;;;;;8.65;2.85;;;20.10;57.60;;;;;;5012964;28;20226;-72
2022/04/29 05:23:05;;;;;;;4.88;3.13;;;20.20;57.70;;;;;;5012395;28;20208;-72
2022/04/29 05:25:41;;;;;;;7.10;3.90;;;20.20;57.70;;;;;;5002340;28;20206;-72
2022/04/29 05:28:26;;;;;;;5.38;3.60;;;20.20;57.80;;;;;;5034045;28;20186;-72
2022/04/29 05:31:11;;;;;;;8.05;3.47;;;20.20;57.70;;;;;;5026774;28;20294;-72
2022/04/29 05:33:55;;;;;;;6.25;2.70;;;20.20;57.70;;;;;;5032157;28;20218;-72
2022/04/29 05:36:40;;;;;;;4.47;2.50;;;20.20;57.70;;;;;;5033599;28;20243;-72
2022/04/29 05:42:18;;;;;;;3.95;2.88;;;20.30;57.60;;;;;;5012026;28;20191;-72
2022/04/29 05:44:45;;;;;;;4.45;3.00;;;20.30;57.60;;;;;;5012536;28;20214;-72
2022/04/29 05:47:14;;;;;;;4.57;3.10;;;20.20;57.40;;;;;;4996343;28;20575;-72
2022/04/29 05:49:40;;;;;;;5.75;2.97;;;20.30;57.50;;;;;;5011279;28;20180;-72
2022/04/29 05:52:09;;;;;;;6.05;2.70;;;20.30;57.40;;;;;;5011885;28;20188;-72
2022/04/29 05:54:37;;;;;;;4.70;3.30;;;20.30;57.40;;;;;;5028145;28;20239;-72
2022/04/29 05:57:04;;;;;;;5.72;2.65;;;20.30;57.40;;;;;;5012428;28;20184;-72
2022/04/29 05:59:30;;;;;;;4.25;2.58;;;20.30;57.40;;;;;;5018568;28;20202;-72
2022/04/29 06:02:00;;;;;;;2.78;2.58;;;20.30;57.20;;;;;;5003336;22;20225;-69
2022/04/29 06:04:46;;;;;;;4.03;2.45;;;20.30;57.20;;;;;;4987030;28;20245;-69
2022/04/29 06:07:11;;;;;;;4.68;2.20;;;20.30;57.20;;;;;;4973378;28;20181;-69
2022/04/29 06:09:39;;;;;;;3.58;2.28;;;20.30;57.20;;;;;;4989614;28;20542;-69
2022/04/29 06:12:06;;;;;;;3.25;2.03;;;20.30;57.20;;;;;;4969965;28;20210;-68
2022/04/29 06:14:35;;;;;;;4.10;2.40;;;20.30;57.20;;;;;;4970022;28;20250;-68
2022/04/29 06:17:13;;;;;;;3.67;2.90;;;20.30;57.20;;;;;;4954711;29;20185;-69
2022/04/29 06:20:15;;;;;;;6.35;2.67;;;20.40;57.20;;;;;;4933649;29;20290;-69
2022/04/29 06:22:59;;;;;;;3.70;2.35;;;20.40;57.20;;;;;;4950941;29;20255;-69
2022/04/29 06:25:32;;;;;;;2.65;2.05;;;20.40;57.20;;;;;;4970196;28;20214;-69
2022/04/29 06:27:59;;;;;;;4.65;2.40;;;20.40;57.20;;;;;;4970248;28;20716;-69
2022/04/29 06:30:25;;;;;;;2.50;2.30;;;20.40;57.10;;;;;;4969848;28;20245;-69
2022/04/29 06:33:25;;;;;;;6.93;2.95;;;20.30;57.00;;;;;;4947685;29;20310;-69
2022/04/29 06:35:51;;;;;;;3.33;2.60;;;20.40;57.20;;;;;;4949639;28;20221;-69
2022/04/29 06:38:18;;;;;;;3.13;2.55;;;20.40;57.00;;;;;;4950423;28;20193;-69
2022/04/29 06:40:57;;;;;;;3.65;2.88;;;20.30;57.00;;;;;;4953969;29;20237;-69
2022/04/29 06:43:30;;;;;;;3.83;3.00;;;20.40;57.10;;;;;;4954341;28;20646;-69
2022/04/29 06:46:17;;;;;;;4.20;2.75;;;20.40;57.00;;;;;;4954789;29;20277;-69
2022/04/29 06:49:01;;;;;;;3.40;2.35;;;20.40;57.00;;;;;;4967446;28;20178;-68
2022/04/29 06:51:47;;;;;;;3.13;2.20;;;20.40;57.00;;;;;;4953040;28;20215;-68
2022/04/29 06:54:20;;;;;;;3.13;2.17;;;20.40;57.00;;;;;;4953591;29;20209;-69
2022/04/29 06:56:52;;;;;;;3.13;2.60;;;20.40;56.90;;;;;;4953775;28;20263;-69
2022/04/29 06:59:18;;;;;;;7.00;2.67;;;20.40;56.90;;;;;;4953357;28;20190;-69
2022/04/29 07:01:44;;;;;;;4.22;3.03;;;20.40;56.90;;;;;;4961219;28;20225;-69
2022/04/29 07:04:11;;;;;;;2.92;2.60;;;20.40;56.80;;;;;;4969383;28;20189;-69
2022/04/29 07:06:37;;;;;;;3.60;3.10;;;20.40;56.90;;;;;;4969470;28;20210;-69
2022/04/29 07:09:04;;;;;;;4.07;2.60;;;20.40;56.80;;;;;;4953426;28;20271;-69
2022/04/29 07:11:48;;;;;;;6.70;2.63;;;20.50;56.80;;;;;;4967229;28;20304;-69
2022/04/29 07:14:22;;;;;;;2.80;2.38;;;20.50;56.70;;;;;;4969391;28;20549;-68
2022/04/29 07:17:09;;;;;;;2.88;2.60;;;20.50;56.60;;;;;;4953155;28;20190;-69
2022/04/29 07:19:39;;;;;;;4.50;2.50;;;20.50;56.70;;;;;;4969268;28;20230;-69
2022/04/29 07:22:06;;;;;;;2.97;2.67;;;20.60;56.80;;;;;;4953577;28;20210;-69
2022/04/29 07:24:35;;;;;;;2.50;2.30;;;20.60;56.60;;;;;;4969499;28;20179;-69
2022/04/29 07:27:03;;;;;;;4.65;2.50;;;20.60;56.90;;;;;;4970060;28;20588;-69
2022/04/29 07:29:30;;;;;;;2.85;2.55;;;20.60;56.70;;;;;;4941629;28;20237;-69
2022/04/29 07:32:03;;;;;;;3.10;2.80;;;20.60;56.70;;;;;;4944418;28;20690;-69
2022/04/29 07:43:37;;;;;;;3.10;2.30;;;20.70;56.90;;;;;;4952890;28;20186;-69
2022/04/29 07:46:04;;;;;;;2.67;2.40;;;20.70;56.60;;;;;;4952787;28;20609;-69
2022/04/29 07:48:31;;;;;;;2.95;2.30;;;20.70;56.70;;;;;;4952822;29;20302;-69
2022/04/29 07:51:00;;;;;;;2.63;2.22;;;20.70;56.60;;;;;;4953471;28;20203;-69
2022/04/29 07:53:26;;;;;;;2.53;2.33;;;20.70;56.60;;;;;;4952721;28;20281;-69
2022/04/29 07:55:52;;;;;;;3.75;2.53;;;20.70;56.40;;;;;;4952945;28;20190;-69
2022/04/29 07:58:19;;;;;;;3.65;2.72;;;20.70;56.50;;;;;;4953161;29;20186;-69
2022/04/29 08:00:45;;;;;;;3.38;2.70;;;20.80;56.50;;;;;;4952459;29;20597;-69
2022/04/29 08:03:10;;;;;;;2.40;2.20;;;20.80;56.20;;;;;;4959732;28;20182;-68
2022/04/29 08:06:00;;;;;;;2.97;2.70;;;20.80;56.00;;;;;;4953251;29;20206;-69
2022/04/29 08:08:26;;;;;;;3.20;2.35;;;20.80;56.10;;;;;;4952716;28;20187;-68
2022/04/29 08:10:51;;;;;;;3.22;2.92;;;20.80;56.10;;;;;;4937157;28;20198;-69
2022/04/29 08:13:18;;;;;;;3.15;2.47;;;20.80;56.20;;;;;;4955886;28;20646;-69
2022/04/29 08:16:03;;;;;;;2.40;2.17;;;20.80;56.20;;;;;;4957735;29;20202;-69
2022/04/29 08:18:58;;;;;;;2.60;2.40;;;20.80;56.30;;;;;;4956609;29;20567;-69
2022/04/29 08:21:43;;;;;;;2.47;2.00;;;20.80;56.40;;;;;;4969702;28;20210;-69
2022/04/29 08:24:09;;;;;;;2.90;2.30;;;20.80;56.30;;;;;;4956169;28;20239;-69
2022/04/29 08:26:35;;;;;;;2.72;2.30;;;20.80;56.10;;;;;;4956419;28;20214;-69
2022/04/29 08:29:01;;;;;;;3.90;2.63;;;20.80;56.10;;;;;;4956227;28;20624;-69
2022/04/29 08:31:27;;;;;;;2.55;2.35;;;20.80;56.20;;;;;;4964106;28;20205;-69
2022/04/29 08:33:56;;;;;;;3.17;2.40;;;20.80;56.00;;;;;;4953205;28;20222;-69
2022/04/29 08:36:23;;;;;;;2.20;2.00;;;20.80;55.90;;;;;;4968525;28;20183;-69
2022/04/29 08:38:51;;;;;;;3.35;2.40;;;20.90;55.60;;;;;;4937029;28;20183;-69
2022/04/29 08:41:19;;;;;;;2.45;2.25;;;20.90;55.60;;;;;;4952652;28;20226;-69
2022/04/29 08:43:48;;;;;;;2.35;2.15;;;20.90;55.80;;;;;;4936425;29;20195;-69
2022/04/29 08:46:22;;;;;;;2.42;2.20;;;20.90;55.80;;;;;;4952594;28;20214;-69
2022/04/29 08:49:10;;;;;;;2.22;1.92;;;20.90;56.00;;;;;;4967812;28;20214;-69
2022/04/29 08:51:38;;;;;;;2.58;2.35;;;20.90;56.10;;;;;;4971865;28;20576;-69
2022/04/29 08:54:05;;;;;;;3.20;2.30;;;21.00;56.20;;;;;;4971869;28;20190;-69
2022/04/29 08:59:26;;;;;;;4.40;2.33;;;20.90;56.00;;;;;;4952012;29;20226;-69
2022/04/29 09:01:52;;;;;;;3.13;2.33;;;21.00;56.00;;;;;;4952963;29;20604;-69
2022/04/29 09:04:18;;;;;;;3.10;2.08;;;20.90;55.90;;;;;;4954948;28;20191;-69
2022/04/29 09:06:49;;;;;;;4.32;2.42;;;20.90;56.00;;;;;;4956488;28;20221;-69
2022/04/29 09:09:21;;;;;;;2.50;2.08;;;20.90;55.90;;;;;;4955520;29;20167;-69
2022/04/29 09:11:47;;;;;;;2.30;2.10;;;20.90;55.60;;;;;;4971804;28;20210;-70
2022/04/29 09:14:23;;;;;;;2.58;2.35;;;20.90;55.80;;;;;;4971469;28;20229;-69
2022/04/29 09:16:50;;;;;;;2.38;2.17;;;20.90;55.80;;;;;;4971855;28;20250;-69
2022/04/29 09:19:33;;;;;;;2.30;2.10;;;20.90;56.10;;;;;;4971568;28;20209;-69
2022/04/29 09:22:09;;;;;;;3.97;2.28;;;20.90;56.00;;;;;;4971452;28;20241;-69
2022/04/29 09:25:03;;;;;;;2.72;2.00;;;20.90;56.00;;;;;;4958201;28;20606;-68
2022/04/29 09:28:03;;;;;;;2.67;1.80;;;20.90;55.80;;;;;;4971489;28;20205;-69
2022/04/29 09:30:48;;;;;;;2.35;2.15;;;20.90;56.70;;;;;;4958595;28;20306;-69
2022/04/29 09:33:57;;;;;;;2.35;2.10;;;20.90;56.00;;;;;;4958745;28;20269;-69
2022/04/29 09:36:27;;;;;;;3.83;2.63;;;20.90;56.00;;;;;;4956804;28;20619;-69
2022/04/29 09:41:54;;;;;;;2.65;2.15;;;20.90;56.20;;;;;;4956045;28;20294;-69
2022/04/29 09:44:37;;;;;;;2.13;2.00;;;20.90;56.10;;;;;;4955914;28;20207;-69
2022/04/29 09:47:20;;;;;;;5.05;2.20;;;20.90;55.80;;;;;;4954932;29;20197;-69
2022/04/29 09:49:58;;;;;;;2.22;1.90;;;20.90;56.10;;;;;;4954713;29;20194;-69
2022/04/29 09:52:26;;;;;;;2.40;2.05;;;20.90;56.10;;;;;;4955768;29;20178;-69
2022/04/29 09:54:53;;;;;;;2.47;2.05;;;20.90;56.10;;;;;;4954696;28;20277;-69
2022/04/29 09:57:23;;;;;;;2.47;2.20;;;20.90;56.10;;;;;;4970835;28;20174;-69
2022/04/29 09:59:55;;;;;;;3.10;2.10;;;20.90;56.20;;;;;;4969275;28;20383;-69
2022/04/29 10:02:26;;;;;;;2.42;2.05;;;20.90;56.10;;;;;;4954373;29;20253;-69
2022/04/29 10:04:56;;;;;;;2.30;2.10;;;20.90;56.10;;;;;;4954616;28;20221;-69
2022/04/29 10:07:25;;;;;;;2.60;2.38;;;21.00;56.20;;;;;;4954634;29;20187;-69
2022/04/29 10:10:04;;;;;;;2.78;2.58;;;21.00;56.20;;;;;;4954633;29;20189;-69
2022/04/29 10:12:31;;;;;;;1.98;1.88;;;21.00;56.10;;;;;;4954159;28;20206;-69
2022/04/29 10:15:18;;;;;;;2.40;2.20;;;21.00;56.30;;;;;;4954694;29;20383;-69
2022/04/29 10:21:15;;;;;;;2.83;2.00;;;21.00;56.20;;;;;;4957932;28;20245;-69
2022/04/29 10:23:42;;;;;;;3.92;2.13;;;21.00;56.30;;;;;;4955139;28;20194;-70
2022/04/29 10:26:09;;;;;;;2.10;1.80;;;21.00;56.30;;;;;;4954082;28;20225;-69
2022/04/29 10:28:36;;;;;;;2.35;2.05;;;21.00;56.30;;;;;;4953985;28;20190;-69
2022/04/29 10:31:06;;;;;;;2.58;1.90;;;21.00;56.30;;;;;;4961510;28;20206;-69
2022/04/29 10:33:32;;;;;;;2.40;2.20;;;21.00;56.30;;;;;;4953642;28;20214;-69
2022/04/29 10:36:10;;;;;;;2.85;2.30;;;21.00;56.30;;;;;;4954565;28;20187;-69
2022/04/29 10:38:39;;;;;;;2.70;2.50;;;21.00;56.10;;;;;;4970586;28;20198;-69
2022/04/29 10:41:25;;;;;;;3.00;2.20;;;21.00;56.10;;;;;;4955281;28;20289;-69
2022/04/29 10:43:50;;;;;;;2.00;1.90;;;21.00;56.30;;;;;;4953934;29;20269;-69
2022/04/29 10:46:30;;;;;;;2.33;1.83;;;21.00;56.00;;;;;;4955245;28;20290;-68
2022/04/29 10:49:25;;;;;;;2.72;2.00;;;21.00;55.90;;;;;;4953906;28;20174;-69
2022/04/29 10:52:28;;;;;;;3.63;1.88;;;21.00;56.20;;;;;;4967713;28;20206;-69
2022/04/29 10:55:23;;;;;;;3.05;2.03;;;21.00;56.20;;;;;;4953859;29;20186;-69
2022/04/29 10:57:52;;;;;;;2.40;2.20;;;21.00;56.10;;;;;;4955186;28;20186;-69
2022/04/29 11:00:22;;;;;;;2.22;2.03;;;21.00;56.00;;;;;;4953562;28;20217;-69
2022/04/29 11:02:49;;;;;;;3.85;2.10;;;21.00;55.90;;;;;;4953233;29;20185;-69
2022/04/29 11:05:40;;;;;;;2.58;2.17;;;21.00;56.20;;;;;;4953232;29;20229;-69
2022/04/29 11:08:10;;;;;;;2.60;2.30;;;21.00;56.00;;;;;;4934087;29;20597;-69
2022/04/29 11:10:58;;;;;;;2.58;2.20;;;21.00;55.90;;;;;;4934254;29;20302;-69
2022/04/29 11:13:27;;;;;;;2.63;2.42;;;21.00;56.10;;;;;;4966070;28;20178;-69
2022/04/29 11:16:15;;;;;;;2.28;2.03;;;21.00;56.00;;;;;;4934551;29;20211;-69
2022/04/29 11:18:43;;;;;;;1.95;1.85;;;21.10;56.30;;;;;;4966432;28;20238;-69
2022/04/29 11:26:50;;;;;;;3.42;2.20;;;21.00;56.20;;;;;;4934057;29;20219;-69
2022/04/29 11:29:18;;;;;;;2.55;2.00;;;21.00;55.90;;;;;;4950553;28;20183;-69
2022/04/29 11:32:05;;;;;;;2.40;2.20;;;21.00;55.70;;;;;;4924285;29;20301;-69
2022/04/29 11:34:30;;;;;;;2.35;2.15;;;21.00;55.80;;;;;;4949800;29;20266;-69
2022/04/29 11:36:57;;;;;;;3.05;2.10;;;21.00;55.80;;;;;;4952560;28;20285;-69
2022/04/29 11:39:23;;;;;;;3.53;2.30;;;21.00;55.60;;;;;;4954191;28;20190;-69
2022/04/29 11:41:59;;;;;;;2.75;2.10;;;21.00;55.80;;;;;;4952926;28;20221;-69
2022/04/29 11:44:45;;;;;;;2.38;1.80;;;21.00;55.70;;;;;;4953124;29;20186;-69
2022/04/29 11:47:12;;;;;;;3.50;2.00;;;21.00;55.70;;;;;;4955936;28;20174;-69
2022/04/29 11:49:42;;;;;;;3.97;2.08;;;21.00;55.50;;;;;;4956693;29;20179;-69
2022/04/29 11:52:32;;;;;;;5.82;2.40;;;21.00;55.50;;;;;;4957730;28;20207;-69
2022/04/29 11:55:01;;;;;;;2.08;1.98;;;21.00;55.50;;;;;;4956580;29;20205;-69
2022/04/29 11:57:41;;;;;;;3.35;2.30;;;21.00;55.40;;;;;;4956836;28;20249;-69
2022/04/29 12:00:08;;;;;;;3.72;2.03;;;21.00;55.50;;;;;;4956568;29;20202;-69
2022/04/29 12:02:46;;;;;;;2.28;2.08;;;21.00;55.40;;;;;;4956737;29;20281;-69
2022/04/29 12:05:13;;;;;;;2.85;1.95;;;21.00;55.50;;;;;;4956812;29;20209;-68
2022/04/29 12:07:42;;;;;;;4.07;1.90;;;21.00;55.50;;;;;;4956475;28;20183;-69
2022/04/29 12:10:18;;;;;;;2.15;2.03;;;21.10;55.80;;;;;;4956678;29;20183;-69
2022/04/29 12:12:47;;;;;;;2.08;1.88;;;21.00;55.50;;;;;;4956645;29;20325;-69
2022/04/29 12:15:23;;;;;;;5.05;2.17;;;21.10;55.50;;;;;;4972356;28;20221;-69
2022/04/29 12:17:49;;;;;;;2.10;1.90;;;21.10;55.40;;;;;;4956192;29;20185;-69
2022/04/29 12:20:18;;;;;;;3.45;2.33;;;21.10;55.60;;;;;;4956106;28;20210;-70
2022/04/29 12:22:48;;;;;;;3.05;2.35;;;21.10;55.30;;;;;;4955919;28;20190;-69
2022/04/29 12:25:23;;;;;;;2.38;2.17;;;21.10;55.30;;;;;;4972222;28;20207;-69
2022/04/29 12:28:10;;;;;;;2.55;2.35;;;21.10;55.30;;;;;;4956143;28;20241;-69
2022/04/29 12:36:52;;;;;;;2.10;1.90;;;21.10;55.50;;;;;;4956037;28;20254;-69
2022/04/29 12:39:36;;;;;;;2.38;2.17;;;21.10;55.30;;;;;;4972378;28;20253;-69
2022/04/29 12:42:06;;;;;;;1.77;1.67;;;21.10;55.40;;;;;;4961109;28;20210;-69
2022/04/29 12:47:39;;;;;;;2.35;2.15;;;21.10;55.30;;;;;;4936769;29;20222;-70
2022/04/29 12:50:20;;;;;;;2.55;2.00;;;21.10;55.70;;;;;;4955656;29;20241;-70
2022/04/29 12:52:49;;;;;;;2.55;2.15;;;21.10;55.30;;;;;;4955638;29;20269;-69
2022/04/29 12:55:16;;;;;;;5.10;2.13;;;21.10;55.60;;;;;;4956853;28;20232;-70
2022/04/29 12:57:41;;;;;;;4.75;1.92;;;21.10;55.30;;;;;;4955435;28;20194;-70
2022/04/29 13:00:08;;;;;;;3.58;2.42;;;21.10;55.20;;;;;;4957331;28;20186;-71
2022/04/29 13:02:34;;;;;;;5.28;2.45;;;21.10;55.30;;;;;;4975578;28;20189;-69
2022/04/29 13:05:00;;;;;;;5.43;2.35;;;21.10;55.10;;;;;;4955909;28;20246;-69
2022/04/29 13:07:32;;;;;;;5.53;2.45;;;21.10;55.20;;;;;;4955584;29;20201;-69
2022/04/29 13:09:58;;;;;;;9.63;2.72;;;21.10;55.30;;;;;;4955207;28;20555;-69
2022/04/29 13:12:25;;;;;;;5.07;2.38;;;21.10;55.30;;;;;;4955230;29;20202;-69
2022/04/29 13:15:03;;;;;;;6.10;2.65;;;21.10;55.40;;;;;;4955144;29;20262;-69
2022/04/29 13:17:28;;;;;;;8.02;2.25;;;21.10;55.70;;;;;;4954994;28;20182;-70
2022/04/29 13:19:54;;;;;;;6.28;2.40;;;21.10;55.60;;;;;;4971257;28;20190;-69
2022/04/29 13:22:20;;;;;;;3.60;2.28;;;21.20;55.80;;;;;;4955062;28;20194;-69
2022/04/29 13:24:52;;;;;;;6.22;2.45;;;21.20;55.50;;;;;;4958080;28;20193;-69
2022/04/29 13:27:19;;;;;;;2.90;1.90;;;21.20;55.70;;;;;;4962790;28;20182;-69
2022/04/29 13:29:45;;;;;;;6.47;2.55;;;21.20;55.60;;;;;;4953200;29;20187;-68
2022/04/29 13:32:10;;;;;;;5.13;2.42;;;21.10;55.60;;;;;;4954682;28;20705;-69
2022/04/29 13:34:36;;;;;;;5.57;2.38;;;21.10;55.60;;;;;;4954778;28;20828;-69
2022/04/29 13:37:02;;;;;;;6.15;2.22;;;21.20;55.50;;;;;;4955040;29;20216;-69
2022/04/29 13:39:28;;;;;;;6.45;2.40;;;21.20;55.80;;;;;;4955690;28;20187;-69
2022/04/29 13:42:13;;;;;;;2.85;2.28;;;21.20;55.70;;;;;;4949571;29;20284;-69
2022/04/29 13:44:40;;;;;;;3.35;2.40;;;21.20;55.70;;;;;;4954751;29;20194;-69
2022/04/29 13:47:06;;;;;;;5.32;2.30;;;21.10;55.80;;;;;;4970774;28;20210;-68
2022/04/29 13:49:33;;;;;;;5.75;2.20;;;21.20;55.70;;;;;;4955777;28;20193;-69